Otis ANGB, Massachusetts
Current Conditions -  °F | °C
As of 11:35 AM on Saturday 22 Nov 2014 (Local Time) from KFMH Reporting Station
Clear Clear  
Wind Chill: 34°   Ceiling: Unl
Heat Index: 43°   Visibility: 10mi
Dew Point: 23°   Wind: 23mph
Humidity: 46%   Direction: 230°SW
Pressure: 30.32"   Gusts: NA
Location:  41.679°N, 70.5704°W
Report Text: KFMH 221635Z AUTO 23020KT 10SM CLR 06/M05 A3032 RMK AO2
Loading
Personal Weather Stations






























Interactive Weather Map New forecast layout! Learn more

10-Day Weather Forecast

Advertisements
Track Severe Weather on mobile